Santo Antonio de Posse, Brazil
Current Conditions -  °F | °C
As of 5:00 PM on Sunday 23 Nov 2014 (Local Time) from SBKP Reporting Station
Few Clouds Few Clouds  
Wind Chill: 84°   Ceiling: Unl
Heat Index: 84°   Visibility: 6mi
Dew Point: 59°   Wind: 7mph
Humidity: 42%   Direction: 190°S
Pressure: 29.91"   Gusts: NA
Location:  22.61°S, 46.92°W
Report Text: SBKP 231900Z 19006KT 9999 FEW035 29/15 Q1013
Loading
Personal Weather Stations






























Interactive Weather Map New forecast layout! Learn more

10-Day Weather Forecast

Advertisements
Track Severe Weather on mobile